Terminal Aerodrome Forecast
Issued by NWS

Current Version | Previous Version | Text Only | Print | Product List | Glossary Off
Versions: 1 2 3 4 5 6 7 8 9 10 11 12 13 14 15 16 17 18 19 20 21

000
FTUS41 KILN 180500
TAFLCK
TAF
KLCK 180535Z 1806/1906 00000KT P6SM SCT100
     FM180900 00000KT 6SM BR SCT050
     FM181100 00000KT 4SM BR SCT040
     FM181200 06004KT 4SM BR OVC020
     FM181500 07005KT P6SM OVC025
     FM181700 06005KT P6SM VCSH BKN035
     FM182100 06005KT P6SM BKN100=

USA.gov is the U.S. government's official web portal to all federal, state and local government web resources and services.